createdAt,value
2022-10-11T00:05:16.573Z,100946.36
2022-10-11T00:11:26.569Z,100943.23
2022-10-11T00:31:30.856Z,100965.64
2022-10-11T00:39:14.289Z,100964.23
2022-10-11T00:43:36.909Z,100963.53
2022-10-11T00:55:56.714Z,100964.69
2022-10-11T01:01:10.893Z,100968.16
2022-10-11T01:06:26.169Z,100973.91
2022-10-11T01:11:39.337Z,100978.23
2022-10-11T01:17:12.662Z,100978.46
2022-10-11T02:07:16.022Z,101008.21
2022-10-11T02:12:58.368Z,101016.21
2022-10-11T02:19:05.677Z,101017.40
2022-10-11T02:24:41.229Z,101024.33
2022-10-11T02:30:02.220Z,101025.07
2022-10-11T02:35:54.737Z,101035.08
2022-10-11T02:56:13.964Z,101058.41
2022-10-11T03:02:19.991Z,101072.52
2022-10-11T03:07:39.014Z,101084.30
2022-10-11T03:12:58.057Z,101086.05
2022-10-11T03:25:57.784Z,101100.84
2022-10-11T03:46:20.087Z,101125.45
2022-10-11T03:52:18.242Z,101132.42
2022-10-11T03:57:41.994Z,101138.77
2022-10-11T04:03:09.894Z,101145.92
2022-10-11T05:06:31.323Z,101220.07
2022-10-11T05:17:46.100Z,101246.71
2022-10-11T05:23:32.892Z,101258.41
2022-10-11T05:29:11.109Z,101263.81
2022-10-11T05:35:22.584Z,101274.59
2022-10-11T05:40:30.288Z,101284.58
2022-10-11T05:45:48.999Z,101292.92
2022-10-11T05:58:09.971Z,101322.75
2022-10-11T06:03:42.852Z,101330.83
2022-10-11T06:09:07.624Z,101341.52
2022-10-11T06:14:15.751Z,101347.30
2022-10-11T06:19:37.677Z,101355.88
2022-10-11T06:24:45.490Z,101366.45
2022-10-11T06:29:59.438Z,101374.09
2022-10-11T06:35:09.654Z,101383.23
2022-10-11T06:40:21.583Z,101394.08
2022-10-11T06:46:08.696Z,101402.48
2022-10-11T06:51:51.160Z,101413.91
2022-10-11T06:57:16.096Z,101415.65
2022-10-11T07:02:45.757Z,101422.59
2022-10-11T07:07:56.141Z,101429.02
2022-10-11T07:19:07.756Z,101437.37
2022-10-11T07:24:15.656Z,101443.99
2022-10-11T07:29:25.038Z,101451.80
2022-10-11T07:34:35.017Z,101464.72
2022-10-11T07:39:42.154Z,101470.48
2022-10-11T07:44:49.253Z,101476.95
2022-10-11T07:49:56.307Z,101483.14
2022-10-11T07:55:03.555Z,101494.16
2022-10-11T08:00:13.109Z,101502.95
2022-10-11T08:05:20.625Z,101510.92
2022-10-11T08:10:26.853Z,101510.51
2022-10-11T08:15:34.881Z,101511.77
2022-10-11T08:20:45.941Z,101511.80
2022-10-11T08:25:59.400Z,101517.29
2022-10-11T08:31:06.824Z,101523.83
2022-10-11T08:36:14.559Z,101528.13
2022-10-11T08:41:31.643Z,101535.41
2022-10-11T08:46:41.418Z,101542.17
2022-10-11T08:51:52.605Z,101546.76
2022-10-11T08:57:01.847Z,101554.77
2022-10-11T09:02:21.245Z,101560.75
2022-10-11T09:07:46.851Z,101566.63
2022-10-11T09:13:06.115Z,101566.30
2022-10-11T09:18:32.399Z,101571.92
2022-10-11T09:24:00.397Z,101572.91
2022-10-11T09:29:18.684Z,101575.52
2022-10-11T09:34:32.524Z,101585.98
2022-10-11T09:39:45.405Z,101595.34
2022-10-11T09:44:55.000Z,101600.81
2022-10-11T09:50:05.105Z,101599.14
2022-10-11T09:55:33.942Z,101603.21
2022-10-11T10:00:41.254Z,101604.58
2022-10-11T10:06:05.481Z,101609.14
2022-10-11T10:11:14.475Z,101619.52
2022-10-11T10:16:31.064Z,101622.30
2022-10-11T10:21:40.090Z,101628.26
2022-10-11T10:27:09.287Z,101638.29
2022-10-11T10:32:23.895Z,101636.08
2022-10-11T10:37:35.406Z,101640.92
2022-10-11T10:42:42.722Z,101646.92
2022-10-11T10:48:09.287Z,101649.46
2022-10-11T10:53:26.872Z,101660.45
2022-10-11T10:58:52.333Z,101668.34
2022-10-11T11:04:08.913Z,101669.16
2022-10-11T11:09:29.308Z,101672.21
2022-10-11T11:14:46.759Z,101671.45
2022-10-11T11:20:10.010Z,101670.48
2022-10-11T11:25:32.039Z,101665.92
2022-10-11T11:30:51.292Z,101669.27
2022-10-11T11:36:03.425Z,101671.50
2022-10-11T11:41:18.429Z,101671.27
2022-10-11T11:46:30.244Z,101670.73
2022-10-11T11:51:44.509Z,101671.42
2022-10-11T11:57:02.615Z,101672.45
2022-10-11T12:02:31.707Z,101672.73
2022-10-11T12:07:51.815Z,101670.88
2022-10-11T12:13:20.703Z,101673.16
2022-10-11T12:18:29.435Z,101671.88
2022-10-11T12:23:48.399Z,101672.50
2022-10-11T12:29:28.778Z,101665.91
2022-10-11T12:39:54.221Z,101673.57
2022-10-11T12:45:35.539Z,101676.94
2022-10-11T12:50:52.356Z,101687.65
2022-10-11T12:56:09.206Z,101696.40
2022-10-11T13:01:23.114Z,101693.48
2022-10-11T13:06:33.513Z,101687.45
2022-10-11T13:11:46.882Z,101685.73
2022-10-11T13:17:17.156Z,101690.61
2022-10-11T13:22:26.721Z,101691.18
2022-10-11T13:27:34.674Z,101691.80
2022-10-11T13:32:43.808Z,101683.73
2022-10-11T13:37:51.543Z,101686.98
2022-10-11T13:42:59.655Z,101682.02
2022-10-11T13:48:14.643Z,101678.74
2022-10-11T13:53:29.187Z,101685.06
2022-10-11T13:58:42.192Z,101683.84
2022-10-11T14:03:56.704Z,101687.15
2022-10-11T14:09:07.614Z,101689.81
2022-10-11T14:14:44.417Z,101688.84
2022-10-11T14:20:14.641Z,101695.42
2022-10-11T14:25:23.122Z,101701.70
2022-10-11T14:30:32.077Z,101699.84
2022-10-11T14:35:40.755Z,101700.92
2022-10-11T14:40:54.459Z,101704.42
2022-10-11T14:46:01.974Z,101705.63
2022-10-11T14:51:11.929Z,101706.98
2022-10-11T14:56:21.623Z,101714.02
2022-10-11T15:01:29.422Z,101714.00
2022-10-11T15:06:39.547Z,101716.63
2022-10-11T15:11:46.783Z,101717.48
2022-10-11T15:16:56.305Z,101720.81
2022-10-11T15:22:06.283Z,101719.96
2022-10-11T15:27:17.405Z,101721.77
2022-10-11T15:32:24.669Z,101722.95
2022-10-11T15:37:37.108Z,101728.56
2022-10-11T15:42:46.710Z,101730.79
2022-10-11T15:47:55.514Z,101733.61
2022-10-11T15:53:04.611Z,101743.16
2022-10-11T15:58:17.236Z,101751.17
2022-10-11T16:03:29.465Z,101757.17
2022-10-11T16:08:42.181Z,101765.36
2022-10-11T16:13:53.436Z,101770.89
2022-10-11T16:19:01.106Z,101773.16
2022-10-11T16:24:11.638Z,101775.20
2022-10-11T16:29:24.935Z,101782.30
2022-10-11T16:34:32.361Z,101782.96
2022-10-11T16:39:39.708Z,101785.48
2022-10-11T16:44:47.267Z,101788.33
2022-10-11T16:49:54.763Z,101794.26
2022-10-11T16:55:01.988Z,101798.52
2022-10-11T17:00:13.019Z,101790.41
2022-10-11T17:05:21.052Z,101795.61
2022-10-11T17:10:39.654Z,101797.54
2022-10-11T17:15:46.981Z,101799.77
2022-10-11T17:21:01.127Z,101803.03
2022-10-11T17:26:11.577Z,101805.05
2022-10-11T17:31:19.997Z,101808.14
2022-10-11T17:36:30.814Z,101812.09
2022-10-11T17:41:38.609Z,101815.73
2022-10-11T17:46:49.794Z,101821.73
2022-10-11T17:52:00.095Z,101825.01
2022-10-11T18:03:06.503Z,101829.19
2022-10-11T18:08:34.337Z,101828.08
2022-10-11T18:13:49.234Z,101830.06
2022-10-11T18:18:57.965Z,101830.60
2022-10-11T18:24:07.859Z,101829.46
2022-10-11T18:29:15.221Z,101833.66
2022-10-11T18:34:22.320Z,101834.74
2022-10-11T18:39:29.393Z,101833.56
2022-10-11T18:44:36.504Z,101837.55
2022-10-11T18:49:43.575Z,101836.42
2022-10-11T18:54:50.620Z,101838.64
2022-10-11T18:59:57.780Z,101841.27
2022-10-11T19:05:05.967Z,101844.86
2022-10-11T19:10:29.500Z,101848.53
2022-10-11T19:15:39.987Z,101851.34
2022-10-11T19:20:49.181Z,101852.40
2022-10-11T19:26:04.353Z,101853.16
2022-10-11T19:31:17.907Z,101858.20
2022-10-11T19:36:32.599Z,101863.56
2022-10-11T19:41:44.640Z,101862.30
2022-10-11T19:46:56.407Z,101862.20
2022-10-11T19:52:04.928Z,101863.75
2022-10-11T19:57:12.758Z,101863.69
2022-10-11T20:02:20.962Z,101862.73
2022-10-11T20:07:26.820Z,101864.27
2022-10-11T20:12:35.233Z,101868.61
2022-10-11T20:17:52.320Z,101865.24
2022-10-11T20:23:00.222Z,101865.77
2022-10-11T20:28:06.232Z,101867.18
2022-10-11T20:33:15.169Z,101862.70
2022-10-11T20:38:22.894Z,101864.98
2022-10-11T20:43:30.824Z,101861.79
2022-10-11T20:48:38.098Z,101862.73
2022-10-11T20:53:46.388Z,101871.71
2022-10-11T20:58:56.219Z,101871.02
2022-10-11T21:04:05.278Z,101864.67
2022-10-11T21:09:15.665Z,101868.21
2022-10-11T21:14:25.074Z,101867.49
2022-10-11T21:19:31.154Z,101868.88
2022-10-11T21:24:39.005Z,101872.06
2022-10-11T21:29:48.156Z,101872.02
2022-10-11T21:34:55.867Z,101875.27
2022-10-11T21:40:03.328Z,101873.46
2022-10-11T21:45:11.011Z,101874.00
2022-10-11T21:50:18.718Z,101876.50
2022-10-11T21:55:24.964Z,101874.02
2022-10-11T22:00:33.388Z,101875.78
2022-10-11T22:05:46.571Z,101874.71
2022-10-11T22:10:59.612Z,101878.61
2022-10-11T22:16:08.483Z,101875.98
2022-10-11T22:21:18.159Z,101876.39
2022-10-11T22:26:27.880Z,101875.70
2022-10-11T22:31:36.368Z,101878.52
2022-10-11T22:36:44.270Z,101875.30
2022-10-11T22:41:51.876Z,101879.85
2022-10-11T22:46:59.289Z,101880.44
2022-10-11T22:52:06.978Z,101880.64
2022-10-11T22:57:14.548Z,101880.58
2022-10-11T23:02:23.360Z,101879.36
2022-10-11T23:07:33.565Z,101876.70
2022-10-11T23:12:41.262Z,101880.95
2022-10-11T23:17:50.258Z,101883.83
2022-10-11T23:22:57.708Z,101885.67
2022-10-11T23:28:06.564Z,101883.56
2022-10-11T23:33:16.908Z,101879.84
2022-10-11T23:38:24.798Z,101886.33
2022-10-11T23:43:32.759Z,101890.61
2022-10-11T23:48:41.195Z,101892.73
2022-10-11T23:53:49.536Z,101897.72
2022-10-11T23:58:55.496Z,101901.66
